sensor_id;sensor_type;location;lat;lon;timestamp;pressure;altitude;pressure_sealevel;temperature;humidity
4085;BME280;2057;50.858;6.572;2023-02-01T00:00:19;100847.09;;;5.72;100.00
4085;BME280;2057;50.858;6.572;2023-02-01T00:02:44;100850.47;;;5.72;100.00
4085;BME280;2057;50.858;6.572;2023-02-01T00:05:10;100856.16;;;5.70;100.00
4085;BME280;2057;50.858;6.572;2023-02-01T00:07:36;100851.78;;;5.67;100.00
4085;BME280;2057;50.858;6.572;2023-02-01T00:10:03;100861.09;;;5.68;100.00
4085;BME280;2057;50.858;6.572;2023-02-01T00:12:30;100859.00;;;5.62;100.00
4085;BME280;2057;50.858;6.572;2023-02-01T00:14:55;100858.00;;;5.60;100.00
4085;BME280;2057;50.858;6.572;2023-02-01T00:17:20;100865.09;;;5.54;100.00
4085;BME280;2057;50.858;6.572;2023-02-01T00:19:46;100861.88;;;5.45;100.00
4085;BME280;2057;50.858;6.572;2023-02-01T00:22:11;100851.06;;;5.46;100.00
4085;BME280;2057;50.858;6.572;2023-02-01T00:24:36;100853.97;;;5.40;100.00
4085;BME280;2057;50.858;6.572;2023-02-01T00:27:01;100845.97;;;5.34;100.00
4085;BME280;2057;50.858;6.572;2023-02-01T00:29:27;100854.38;;;5.34;100.00
4085;BME280;2057;50.858;6.572;2023-02-01T00:31:52;100848.78;;;5.27;100.00
4085;BME280;2057;50.858;6.572;2023-02-01T00:34:19;100849.78;;;5.29;100.00
4085;BME280;2057;50.858;6.572;2023-02-01T00:36:45;100848.91;;;5.28;100.00
4085;BME280;2057;50.858;6.572;2023-02-01T00:39:11;100845.72;;;5.31;100.00
4085;BME280;2057;50.858;6.572;2023-02-01T00:41:38;100849.91;;;5.30;100.00
4085;BME280;2057;50.858;6.572;2023-02-01T00:44:05;100850.47;;;5.38;100.00
4085;BME280;2057;50.858;6.572;2023-02-01T00:46:31;100850.06;;;5.44;100.00
4085;BME280;2057;50.858;6.572;2023-02-01T00:48:56;100849.28;;;5.45;100.00
4085;BME280;2057;50.858;6.572;2023-02-01T00:51:26;100856.50;;;5.40;100.00
4085;BME280;2057;50.858;6.572;2023-02-01T00:53:52;100854.53;;;5.36;100.00
4085;BME280;2057;50.858;6.572;2023-02-01T00:56:18;100846.84;;;5.34;100.00
4085;BME280;2057;50.858;6.572;2023-02-01T00:58:44;100850.34;;;5.37;100.00
4085;BME280;2057;50.858;6.572;2023-02-01T01:01:13;100852.13;;;5.38;100.00
4085;BME280;2057;50.858;6.572;2023-02-01T01:03:44;100839.88;;;5.42;100.00
4085;BME280;2057;50.858;6.572;2023-02-01T01:06:13;100816.56;;;5.45;100.00
4085;BME280;2057;50.858;6.572;2023-02-01T01:08:40;100819.97;;;5.45;100.00
4085;BME280;2057;50.858;6.572;2023-02-01T01:11:19;100795.31;;;5.41;100.00
4085;BME280;2057;50.858;6.572;2023-02-01T01:13:50;100793.13;;;5.46;100.00
4085;BME280;2057;50.858;6.572;2023-02-01T01:16:19;100777.38;;;5.48;100.00
4085;BME280;2057;50.858;6.572;2023-02-01T01:18:45;100780.13;;;5.52;100.00
4085;BME280;2057;50.858;6.572;2023-02-01T01:21:13;100786.28;;;5.55;100.00
4085;BME280;2057;50.858;6.572;2023-02-01T01:23:41;100799.03;;;5.46;100.00
4085;BME280;2057;50.858;6.572;2023-02-01T01:26:27;100796.25;;;5.54;100.00
4085;BME280;2057;50.858;6.572;2023-02-01T01:28:54;100802.03;;;5.53;100.00
4085;BME280;2057;50.858;6.572;2023-02-01T01:31:20;100804.75;;;5.56;100.00
4085;BME280;2057;50.858;6.572;2023-02-01T01:33:53;100821.63;;;5.57;100.00
4085;BME280;2057;50.858;6.572;2023-02-01T01:36:19;100830.72;;;5.55;100.00
4085;BME280;2057;50.858;6.572;2023-02-01T01:38:45;100831.84;;;5.58;100.00
4085;BME280;2057;50.858;6.572;2023-02-01T01:41:16;100837.09;;;5.61;100.00
4085;BME280;2057;50.858;6.572;2023-02-01T01:43:56;100845.41;;;5.60;100.00
4085;BME280;2057;50.858;6.572;2023-02-01T01:46:28;100836.09;;;5.59;100.00
4085;BME280;2057;50.858;6.572;2023-02-01T01:49:01;100819.09;;;5.57;100.00
4085;BME280;2057;50.858;6.572;2023-02-01T01:51:30;100821.63;;;5.57;100.00
4085;BME280;2057;50.858;6.572;2023-02-01T01:54:04;100821.75;;;5.58;100.00
4085;BME280;2057;50.858;6.572;2023-02-01T01:56:32;100831.84;;;5.58;100.00
4085;BME280;2057;50.858;6.572;2023-02-01T01:59:00;100819.59;;;5.63;100.00
4085;BME280;2057;50.858;6.572;2023-02-01T02:01:27;100816.94;;;5.61;100.00
4085;BME280;2057;50.858;6.572;2023-02-01T02:03:53;100809.38;;;5.61;100.00
4085;BME280;2057;50.858;6.572;2023-02-01T02:09:00;100800.88;;;5.71;100.00
4085;BME280;2057;50.858;6.572;2023-02-01T02:11:25;100804.47;;;5.63;100.00
4085;BME280;2057;50.858;6.572;2023-02-01T02:13:53;100805.78;;;5.70;100.00
4085;BME280;2057;50.858;6.572;2023-02-01T02:34:07;100798.78;;;5.65;100.00
4085;BME280;2057;50.858;6.572;2023-02-01T02:42:39;100790.47;;;5.67;100.00
4085;BME280;2057;50.858;6.572;2023-02-01T02:48:25;100789.03;;;5.70;100.00
4085;BME280;2057;50.858;6.572;2023-02-01T02:54:02;100786.38;;;5.69;100.00
4085;BME280;2057;50.858;6.572;2023-02-01T02:56:49;100783.13;;;5.70;100.00
4085;BME280;2057;50.858;6.572;2023-02-01T02:59:38;100769.66;;;5.69;100.00
4085;BME280;2057;50.858;6.572;2023-02-01T03:02:27;100777.75;;;5.77;100.00
4085;BME280;2057;50.858;6.572;2023-02-01T03:05:12;100789.25;;;5.73;100.00
4085;BME280;2057;50.858;6.572;2023-02-01T03:10:17;100777.88;;;5.78;100.00
4085;BME280;2057;50.858;6.572;2023-02-01T03:12:47;100789.59;;;5.78;100.00
4085;BME280;2057;50.858;6.572;2023-02-01T03:15:28;100780.59;;;5.81;100.00
4085;BME280;2057;50.858;6.572;2023-02-01T03:17:55;100780.59;;;5.81;100.00
4085;BME280;2057;50.858;6.572;2023-02-01T03:20:22;100772.72;;;5.77;100.00
4085;BME280;2057;50.858;6.572;2023-02-01T03:22:48;100769.09;;;5.73;100.00
4085;BME280;2057;50.858;6.572;2023-02-01T03:25:23;100773.16;;;5.71;100.00
4085;BME280;2057;50.858;6.572;2023-02-01T03:27:57;100783.25;;;5.71;100.00
4085;BME280;2057;50.858;6.572;2023-02-01T03:30:34;100797.47;;;5.71;100.00
4085;BME280;2057;50.858;6.572;2023-02-01T03:33:04;100778.84;;;5.69;100.00
4085;BME280;2057;50.858;6.572;2023-02-01T03:38:27;100786.06;;;5.64;100.00
4085;BME280;2057;50.858;6.572;2023-02-01T03:41:04;100789.38;;;5.63;100.00
4085;BME280;2057;50.858;6.572;2023-02-01T03:43:37;100780.47;;;5.56;100.00
4085;BME280;2057;50.858;6.572;2023-02-01T03:46:07;100778.72;;;5.55;100.00
4085;BME280;2057;50.858;6.572;2023-02-01T03:48:35;100782.53;;;5.50;100.00
4085;BME280;2057;50.858;6.572;2023-02-01T03:51:03;100774.00;;;5.48;100.00
4085;BME280;2057;50.858;6.572;2023-02-01T03:53:30;100767.09;;;5.45;100.00
4085;BME280;2057;50.858;6.572;2023-02-01T03:55:57;100773.00;;;5.46;100.00
4085;BME280;2057;50.858;6.572;2023-02-01T03:58:23;100761.81;;;5.42;100.00
4085;BME280;2057;50.858;6.572;2023-02-01T04:00:57;100759.19;;;5.41;100.00
4085;BME280;2057;50.858;6.572;2023-02-01T04:03:23;100758.31;;;5.40;100.00
4085;BME280;2057;50.858;6.572;2023-02-01T04:05:49;100762.25;;;5.37;100.00
4085;BME280;2057;50.858;6.572;2023-02-01T04:08:15;100761.47;;;5.38;100.00
4085;BME280;2057;50.858;6.572;2023-02-01T04:10:41;100769.28;;;5.41;100.00
4085;BME280;2057;50.858;6.572;2023-02-01T04:13:06;100758.84;;;5.36;100.00
4085;BME280;2057;50.858;6.572;2023-02-01T04:15:32;100770.41;;;5.22;100.00
4085;BME280;2057;50.858;6.572;2023-02-01T04:17:59;100776.00;;;5.30;100.00
4085;BME280;2057;50.858;6.572;2023-02-01T04:20:25;100777.91;;;5.32;100.00
4085;BME280;2057;50.858;6.572;2023-02-01T04:22:50;100780.69;;;5.25;100.00
4085;BME280;2057;50.858;6.572;2023-02-01T04:25:15;100790.75;;;5.25;100.00
4085;BME280;2057;50.858;6.572;2023-02-01T04:27:42;100777.19;;;5.23;100.00
4085;BME280;2057;50.858;6.572;2023-02-01T04:30:08;100780.69;;;5.25;100.00
4085;BME280;2057;50.858;6.572;2023-02-01T04:32:35;100774.44;;;5.20;100.00
4085;BME280;2057;50.858;6.572;2023-02-01T04:35:01;100770.16;;;5.19;100.00
4085;BME280;2057;50.858;6.572;2023-02-01T04:37:26;100787.28;;;5.23;100.00
4085;BME280;2057;50.858;6.572;2023-02-01T04:39:52;100774.97;;;5.16;100.00
4085;BME280;2057;50.858;6.572;2023-02-01T04:42:17;100770.41;;;5.22;100.00
4085;BME280;2057;50.858;6.572;2023-02-01T04:44:42;100759.84;;;5.16;100.00
4085;BME280;2057;50.858;6.572;2023-02-01T04:47:08;100763.38;;;5.18;100.00
4085;BME280;2057;50.858;6.572;2023-02-01T04:49:34;100765.53;;;5.13;100.00
4085;BME280;2057;50.858;6.572;2023-02-01T04:51:59;100755.28;;;5.10;100.00
4085;BME280;2057;50.858;6.572;2023-02-01T04:54:25;100746.06;;;5.11;100.00
4085;BME280;2057;50.858;6.572;2023-02-01T04:56:50;100749.47;;;5.11;100.00
4085;BME280;2057;50.858;6.572;2023-02-01T04:59:15;100728.44;;;5.11;100.00
4085;BME280;2057;50.858;6.572;2023-02-01T05:01:41;100738.81;;;5.03;100.00
4085;BME280;2057;50.858;6.572;2023-02-01T05:04:06;100730.38;;;5.03;100.00
4085;BME280;2057;50.858;6.572;2023-02-01T05:06:31;100727.00;;;5.02;100.00
4085;BME280;2057;50.858;6.572;2023-02-01T05:08:57;100733.56;;;5.00;100.00
4085;BME280;2057;50.858;6.572;2023-02-01T05:11:22;100712.16;;;5.06;100.00
4085;BME280;2057;50.858;6.572;2023-02-01T05:14:06;100714.84;;;4.97;100.00
4085;BME280;2057;50.858;6.572;2023-02-01T05:16:31;100717.34;;;4.97;100.00
4085;BME280;2057;50.858;6.572;2023-02-01T05:18:57;100742.28;;;4.94;100.00
4085;BME280;2057;50.858;6.572;2023-02-01T05:21:22;100732.66;;;4.88;100.00
4085;BME280;2057;50.858;6.572;2023-02-01T05:23:48;100727.81;;;4.91;100.00
4085;BME280;2057;50.858;6.572;2023-02-01T05:26:31;100756.69;;;4.84;100.00
4085;BME280;2057;50.858;6.572;2023-02-01T05:28:57;100745.22;;;4.88;100.00
4085;BME280;2057;50.858;6.572;2023-02-01T05:31:23;100733.06;;;4.82;100.00
4085;BME280;2057;50.858;6.572;2023-02-01T05:33:48;100730.44;;;4.81;100.00
4085;BME280;2057;50.858;6.572;2023-02-01T05:36:14;100723.63;;;4.80;100.00
4085;BME280;2057;50.858;6.572;2023-02-01T05:38:40;100727.13;;;4.82;100.00
4085;BME280;2057;50.858;6.572;2023-02-01T05:41:05;100741.94;;;4.89;100.00
4085;BME280;2057;50.858;6.572;2023-02-01T05:43:31;100732.41;;;4.85;100.00
4085;BME280;2057;50.858;6.572;2023-02-01T05:45:56;100751.41;;;4.81;100.00
4085;BME280;2057;50.858;6.572;2023-02-01T05:48:22;100751.78;;;4.86;100.00
4085;BME280;2057;50.858;6.572;2023-02-01T05:50:47;100759.22;;;4.84;100.00
4085;BME280;2057;50.858;6.572;2023-02-01T05:53:12;100760.66;;;4.93;100.00
4085;BME280;2057;50.858;6.572;2023-02-01T05:55:38;100761.28;;;4.90;100.00
4085;BME280;2057;50.858;6.572;2023-02-01T05:58:04;100751.06;;;4.77;100.00
4085;BME280;2057;50.858;6.572;2023-02-01T06:00:30;100725.16;;;4.78;100.00
4085;BME280;2057;50.858;6.572;2023-02-01T06:02:58;100735.88;;;4.75;100.00
4085;BME280;2057;50.858;6.572;2023-02-01T06:05:23;100720.81;;;4.87;100.00
4085;BME280;2057;50.858;6.572;2023-02-01T06:07:49;100713.59;;;4.80;100.00
4085;BME280;2057;50.858;6.572;2023-02-01T06:10:18;100711.28;;;4.83;100.00
4085;BME280;2057;50.858;6.572;2023-02-01T06:12:45;100717.59;;;4.78;100.00
4085;BME280;2057;50.858;6.572;2023-02-01T06:15:14;100721.63;;;4.76;100.00
4085;BME280;2057;50.858;6.572;2023-02-01T06:17:41;100722.53;;;4.76;100.00
4085;BME280;2057;50.858;6.572;2023-02-01T06:20:08;100736.06;;;4.78;100.00
4085;BME280;2057;50.858;6.572;2023-02-01T06:22:34;100740.50;;;4.81;100.00
4085;BME280;2057;50.858;6.572;2023-02-01T06:25:01;100737.72;;;4.78;100.00
4085;BME280;2057;50.858;6.572;2023-02-01T06:27:26;100759.00;;;4.71;100.00
4085;BME280;2057;50.858;6.572;2023-02-01T06:29:52;100758.34;;;4.74;100.00
4085;BME280;2057;50.858;6.572;2023-02-01T06:32:20;100750.19;;;4.76;100.00
4085;BME280;2057;50.858;6.572;2023-02-01T06:34:45;100744.88;;;4.83;100.00
4085;BME280;2057;50.858;6.572;2023-02-01T06:37:11;100753.06;;;4.81;100.00
4085;BME280;2057;50.858;6.572;2023-02-01T06:39:37;100740.91;;;4.75;100.00
4085;BME280;2057;50.858;6.572;2023-02-01T06:42:02;100748.75;;;4.68;100.00
4085;BME280;2057;50.858;6.572;2023-02-01T06:44:28;100747.72;;;4.66;100.00
4085;BME280;2057;50.858;6.572;2023-02-01T06:46:53;100784.56;;;4.65;100.00
4085;BME280;2057;50.858;6.572;2023-02-01T06:49:20;100755.50;;;4.69;100.00
4085;BME280;2057;50.858;6.572;2023-02-01T06:51:45;100761.94;;;4.65;100.00
4085;BME280;2057;50.858;6.572;2023-02-01T06:54:10;100749.75;;;4.60;100.00
4085;BME280;2057;50.858;6.572;2023-02-01T06:56:36;100759.19;;;4.62;100.00
4085;BME280;2057;50.858;6.572;2023-02-01T06:59:07;100757.53;;;4.63;100.00
4085;BME280;2057;50.858;6.572;2023-02-01T07:01:33;100771.00;;;4.63;100.00
4085;BME280;2057;50.858;6.572;2023-02-01T07:03:58;100774.78;;;4.58;100.00
4085;BME280;2057;50.858;6.572;2023-02-01T07:06:24;100792.38;;;4.58;100.00
4085;BME280;2057;50.858;6.572;2023-02-01T07:08:49;100779.06;;;4.59;100.00
4085;BME280;2057;50.858;6.572;2023-02-01T07:11:18;100771.16;;;4.54;100.00
4085;BME280;2057;50.858;6.572;2023-02-01T07:13:44;100787.75;;;4.52;100.00
4085;BME280;2057;50.858;6.572;2023-02-01T07:16:13;100782.72;;;4.52;100.00
4085;BME280;2057;50.858;6.572;2023-02-01T07:18:39;100791.38;;;4.56;100.00
4085;BME280;2057;50.858;6.572;2023-02-01T07:21:04;100794.44;;;4.52;100.00
4085;BME280;2057;50.858;6.572;2023-02-01T07:23:30;100804.38;;;4.50;100.00
4085;BME280;2057;50.858;6.572;2023-02-01T07:25:57;100796.31;;;4.54;100.00
4085;BME280;2057;50.858;6.572;2023-02-01T07:28:23;100796.06;;;4.51;100.00
4085;BME280;2057;50.858;6.572;2023-02-01T07:30:48;100799.72;;;4.55;100.00
4085;BME280;2057;50.858;6.572;2023-02-01T07:33:25;100795.66;;;4.57;100.00
4085;BME280;2057;50.858;6.572;2023-02-01T07:35:51;100820.03;;;4.58;100.00
4085;BME280;2057;50.858;6.572;2023-02-01T07:38:17;100797.19;;;4.55;100.00
4085;BME280;2057;50.858;6.572;2023-02-01T07:40:43;100804.09;;;4.58;100.00
4085;BME280;2057;50.858;6.572;2023-02-01T07:43:11;100799.47;;;4.52;100.00
4085;BME280;2057;50.858;6.572;2023-02-01T07:45:36;100799.94;;;4.58;100.00
4085;BME280;2057;50.858;6.572;2023-02-01T07:48:02;100790.53;;;4.55;100.00
4085;BME280;2057;50.858;6.572;2023-02-01T07:50:28;100788.25;;;4.59;100.00
4085;BME280;2057;50.858;6.572;2023-02-01T07:52:54;100783.09;;;4.57;100.00
4085;BME280;2057;50.858;6.572;2023-02-01T07:55:20;100780.56;;;4.57;100.00
4085;BME280;2057;50.858;6.572;2023-02-01T07:57:45;100783.97;;;4.58;100.00
4085;BME280;2057;50.858;6.572;2023-02-01T08:00:11;100788.25;;;4.59;100.00
4085;BME280;2057;50.858;6.572;2023-02-01T08:02:58;100785.50;;;4.55;100.00
4085;BME280;2057;50.858;6.572;2023-02-01T08:05:23;100781.31;;;4.56;100.00
4085;BME280;2057;50.858;6.572;2023-02-01T08:07:49;100791.75;;;4.61;100.00
4085;BME280;2057;50.858;6.572;2023-02-01T08:10:15;100787.38;;;4.58;100.00
4085;BME280;2057;50.858;6.572;2023-02-01T08:12:41;100799.44;;;4.62;100.00
4085;BME280;2057;50.858;6.572;2023-02-01T08:15:06;100796.16;;;4.63;100.00
4085;BME280;2057;50.858;6.572;2023-02-01T08:17:32;100802.56;;;4.60;100.00
4085;BME280;2057;50.858;6.572;2023-02-01T08:19:57;100809.94;;;4.68;100.00
4085;BME280;2057;50.858;6.572;2023-02-01T08:22:22;100805.63;;;4.78;100.00
4085;BME280;2057;50.858;6.572;2023-02-01T08:24:48;100814.31;;;4.81;100.00
4085;BME280;2057;50.858;6.572;2023-02-01T08:27:14;100799.81;;;4.89;100.00
4085;BME280;2057;50.858;6.572;2023-02-01T08:29:39;100821.16;;;4.94;100.00
4085;BME280;2057;50.858;6.572;2023-02-01T08:32:05;100822.44;;;4.89;100.00
4085;BME280;2057;50.858;6.572;2023-02-01T08:34:30;100815.66;;;4.88;100.00
4085;BME280;2057;50.858;6.572;2023-02-01T08:36:55;100840.91;;;4.90;100.00
4085;BME280;2057;50.858;6.572;2023-02-01T08:39:25;100819.94;;;4.89;100.00
4085;BME280;2057;50.858;6.572;2023-02-01T08:41:50;100826.19;;;4.94;100.00
4085;BME280;2057;50.858;6.572;2023-02-01T08:44:34;100828.81;;;4.96;100.00
4085;BME280;2057;50.858;6.572;2023-02-01T08:47:00;100825.44;;;4.95;100.00
4085;BME280;2057;50.858;6.572;2023-02-01T08:49:28;100841.75;;;5.00;100.00
4085;BME280;2057;50.858;6.572;2023-02-01T08:51:54;100835.16;;;5.13;100.00
4085;BME280;2057;50.858;6.572;2023-02-01T08:54:20;100840.94;;;5.12;100.00
4085;BME280;2057;50.858;6.572;2023-02-01T08:56:46;100835.38;;;5.16;100.00
4085;BME280;2057;50.858;6.572;2023-02-01T08:59:11;100861.03;;;5.22;100.00
4085;BME280;2057;50.858;6.572;2023-02-01T09:01:36;100855.09;;;5.22;100.00
4085;BME280;2057;50.858;6.572;2023-02-01T09:04:01;100853.56;;;5.24;100.00
4085;BME280;2057;50.858;6.572;2023-02-01T09:06:27;100845.69;;;5.19;100.00
4085;BME280;2057;50.858;6.572;2023-02-01T09:08:52;100851.25;;;5.15;100.00
4085;BME280;2057;50.858;6.572;2023-02-01T09:11:18;100841.94;;;5.14;100.00
4085;BME280;2057;50.858;6.572;2023-02-01T09:13:47;100851.47;;;5.18;100.00
4085;BME280;2057;50.858;6.572;2023-02-01T09:16:13;100881.44;;;5.15;100.00
4085;BME280;2057;50.858;6.572;2023-02-01T09:18:39;100858.91;;;5.16;100.00
4085;BME280;2057;50.858;6.572;2023-02-01T09:21:08;100860.97;;;5.10;100.00
4085;BME280;2057;50.858;6.572;2023-02-01T09:23:34;100847.72;;;5.13;100.00
4085;BME280;2057;50.858;6.572;2023-02-01T09:26:03;100849.84;;;5.18;100.00
4085;BME280;2057;50.858;6.572;2023-02-01T09:28:29;100861.31;;;5.15;100.00
4085;BME280;2057;50.858;6.572;2023-02-01T09:30:58;100852.72;;;5.23;100.00
4085;BME280;2057;50.858;6.572;2023-02-01T09:33:26;100861.47;;;5.28;100.00
4085;BME280;2057;50.858;6.572;2023-02-01T09:35:58;100852.94;;;5.26;100.00
4085;BME280;2057;50.858;6.572;2023-02-01T09:38:24;100871.03;;;5.32;100.00
4085;BME280;2057;50.858;6.572;2023-02-01T09:40:53;100856.81;;;5.33;100.00
4085;BME280;2057;50.858;6.572;2023-02-01T09:46:03;100864.41;;;5.45;100.00
4085;BME280;2057;50.858;6.572;2023-02-01T09:48:38;100837.94;;;5.50;100.00
4085;BME280;2057;50.858;6.572;2023-02-01T09:51:20;100848.47;;;5.56;99.95
4085;BME280;2057;50.858;6.572;2023-02-01T09:54:18;100834.88;;;5.54;99.30
4085;BME280;2057;50.858;6.572;2023-02-01T09:56:51;100837.44;;;5.66;98.69
4085;BME280;2057;50.858;6.572;2023-02-01T09:59:22;100839.94;;;5.66;98.44
4085;BME280;2057;50.858;6.572;2023-02-01T10:01:50;100826.25;;;5.62;98.60
4085;BME280;2057;50.858;6.572;2023-02-01T10:04:16;100843.03;;;5.74;98.73
4085;BME280;2057;50.858;6.572;2023-02-01T10:12:27;100827.41;;;5.90;97.92
4085;BME280;2057;50.858;6.572;2023-02-01T10:21:05;100832.84;;;6.06;97.04
4085;BME280;2057;50.858;6.572;2023-02-01T10:28:42;100829.50;;;5.95;96.18
4085;BME280;2057;50.858;6.572;2023-02-01T10:38:53;100837.22;;;6.09;95.70
4085;BME280;2057;50.858;6.572;2023-02-01T10:41:22;100814.53;;;6.21;96.26
4085;BME280;2057;50.858;6.572;2023-02-01T10:43:54;100821.88;;;6.18;95.70
4085;BME280;2057;50.858;6.572;2023-02-01T10:46:22;100842.28;;;6.33;96.26
4085;BME280;2057;50.858;6.572;2023-02-01T10:48:49;100834.72;;;6.21;95.43
4085;BME280;2057;50.858;6.572;2023-02-01T10:51:33;100831.09;;;6.29;95.21
4085;BME280;2057;50.858;6.572;2023-02-01T10:54:11;100816.63;;;6.26;94.41
4085;BME280;2057;50.858;6.572;2023-02-01T10:56:39;100812.59;;;6.28;95.28
4085;BME280;2057;50.858;6.572;2023-02-01T10:59:06;100812.25;;;6.36;95.03
4085;BME280;2057;50.858;6.572;2023-02-01T11:01:41;100828.47;;;6.27;94.42
4085;BME280;2057;50.858;6.572;2023-02-01T11:04:20;100819.59;;;6.33;93.90
4085;BME280;2057;50.858;6.572;2023-02-01T11:09:50;100803.69;;;6.46;94.74
4085;BME280;2057;50.858;6.572;2023-02-01T11:12:31;100801.50;;;6.38;93.39
4085;BME280;2057;50.858;6.572;2023-02-01T11:17:46;100808.06;;;6.48;93.59
4085;BME280;2057;50.858;6.572;2023-02-01T11:20:21;100794.16;;;6.53;92.37
4085;BME280;2057;50.858;6.572;2023-02-01T11:22:59;100806.94;;;6.56;92.46
4085;BME280;2057;50.858;6.572;2023-02-01T11:25:25;100789.06;;;6.65;92.57
4085;BME280;2057;50.858;6.572;2023-02-01T11:27:53;100804.22;;;6.65;92.85
4085;BME280;2057;50.858;6.572;2023-02-01T11:30:27;100793.44;;;6.68;93.33
4085;BME280;2057;50.858;6.572;2023-02-01T11:32:56;100798.94;;;6.62;93.09
4085;BME280;2057;50.858;6.572;2023-02-01T11:35:21;100806.84;;;6.55;93.27
4085;BME280;2057;50.858;6.572;2023-02-01T11:37:55;100800.94;;;6.42;92.95
4085;BME280;2057;50.858;6.572;2023-02-01T11:40:44;100795.69;;;6.51;92.82
4085;BME280;2057;50.858;6.572;2023-02-01T11:43:26;100793.16;;;6.39;92.37
4085;BME280;2057;50.858;6.572;2023-02-01T11:46:02;100798.19;;;6.51;92.17
4085;BME280;2057;50.858;6.572;2023-02-01T11:48:30;100795.44;;;6.60;92.27
4085;BME280;2057;50.858;6.572;2023-02-01T11:56:39;100779.75;;;6.64;92.18
4085;BME280;2057;50.858;6.572;2023-02-01T11:59:32;100787.22;;;6.63;91.72
4085;BME280;2057;50.858;6.572;2023-02-01T12:19:14;100744.63;;;6.79;89.56
4085;BME280;2057;50.858;6.572;2023-02-01T12:21:49;100747.13;;;6.79;90.08
4085;BME280;2057;50.858;6.572;2023-02-01T12:32:55;100742.91;;;6.66;90.53
4085;BME280;2057;50.858;6.572;2023-02-01T12:43:46;100734.94;;;6.85;90.23
4085;BME280;2057;50.858;6.572;2023-02-01T12:46:21;100720.88;;;6.89;89.63
4085;BME280;2057;50.858;6.572;2023-02-01T12:51:41;100719.88;;;6.87;89.58
4085;BME280;2057;50.858;6.572;2023-02-01T12:57:02;100723.28;;;6.87;90.11
4085;BME280;2057;50.858;6.572;2023-02-01T12:59:38;100724.84;;;6.85;89.90
4085;BME280;2057;50.858;6.572;2023-02-01T13:02:24;100724.22;;;6.76;90.36
4085;BME280;2057;50.858;6.572;2023-02-01T13:08:00;100713.44;;;6.79;90.68
4085;BME280;2057;50.858;6.572;2023-02-01T13:10:35;100715.88;;;6.77;91.29
4085;BME280;2057;50.858;6.572;2023-02-01T13:16:14;100713.91;;;6.73;91.54
4085;BME280;2057;50.858;6.572;2023-02-01T13:18:43;100706.63;;;6.78;91.23
4085;BME280;2057;50.858;6.572;2023-02-01T13:21:33;100706.53;;;6.76;90.71
4085;BME280;2057;50.858;6.572;2023-02-01T13:24:00;100705.19;;;6.81;91.07
4085;BME280;2057;50.858;6.572;2023-02-01T13:26:25;100705.78;;;6.77;91.26
4085;BME280;2057;50.858;6.572;2023-02-01T13:28:58;100711.91;;;6.81;90.90
4085;BME280;2057;50.858;6.572;2023-02-01T13:37:28;100692.41;;;6.78;91.16
4085;BME280;2057;50.858;6.572;2023-02-01T13:40:17;100702.66;;;6.81;91.34
4085;BME280;2057;50.858;6.572;2023-02-01T13:42:49;100687.53;;;6.81;91.48
4085;BME280;2057;50.858;6.572;2023-02-01T13:45:22;100691.81;;;6.82;91.38
4085;BME280;2057;50.858;6.572;2023-02-01T13:47:50;100692.88;;;6.86;91.12
4085;BME280;2057;50.858;6.572;2023-02-01T13:56:16;100679.34;;;6.97;89.04
4085;BME280;2057;50.858;6.572;2023-02-01T13:58:44;100689.53;;;6.99;88.54
4085;BME280;2057;50.858;6.572;2023-02-01T14:03:58;100687.00;;;6.99;88.91
4085;BME280;2057;50.858;6.572;2023-02-01T14:11:46;100686.53;;;7.04;88.12
4085;BME280;2057;50.858;6.572;2023-02-01T14:16:41;100678.88;;;7.03;89.33
4085;BME280;2057;50.858;6.572;2023-02-01T14:19:27;100688.41;;;7.07;89.17
4085;BME280;2057;50.858;6.572;2023-02-01T14:21:58;100687.44;;;7.05;89.08
4085;BME280;2057;50.858;6.572;2023-02-01T14:24:36;100693.66;;;7.10;88.87
4085;BME280;2057;50.858;6.572;2023-02-01T14:32:05;100706.91;;;7.19;88.38
4085;BME280;2057;50.858;6.572;2023-02-01T14:37:11;100695.94;;;7.19;88.26
4085;BME280;2057;50.858;6.572;2023-02-01T14:47:43;100698.56;;;7.20;88.36
4085;BME280;2057;50.858;6.572;2023-02-01T15:00:57;100713.78;;;7.22;86.28
4085;BME280;2057;50.858;6.572;2023-02-01T15:05:58;100700.31;;;7.35;85.87
4085;BME280;2057;50.858;6.572;2023-02-01T15:08:31;100708.50;;;7.31;85.99
4085;BME280;2057;50.858;6.572;2023-02-01T15:11:01;100738.78;;;7.31;86.19
4085;BME280;2057;50.858;6.572;2023-02-01T15:13:29;100712.94;;;7.35;85.56
4085;BME280;2057;50.858;6.572;2023-02-01T15:16:14;100709.66;;;7.36;85.00
4085;BME280;2057;50.858;6.572;2023-02-01T15:18:40;100709.34;;;7.31;85.28
4085;BME280;2057;50.858;6.572;2023-02-01T15:21:14;100701.78;;;7.31;85.72
4085;BME280;2057;50.858;6.572;2023-02-01T15:23:40;100707.72;;;7.32;85.41
4085;BME280;2057;50.858;6.572;2023-02-01T15:26:05;100697.41;;;7.29;85.19
4085;BME280;2057;50.858;6.572;2023-02-01T15:28:30;100706.72;;;7.30;85.19
4085;BME280;2057;50.858;6.572;2023-02-01T15:31:03;100734.69;;;7.33;85.09
4085;BME280;2057;50.858;6.572;2023-02-01T15:33:30;100713.41;;;7.29;85.79
4085;BME280;2057;50.858;6.572;2023-02-01T15:38:34;100730.16;;;7.15;89.79
4085;BME280;2057;50.858;6.572;2023-02-01T15:44:03;100730.59;;;6.96;94.05
4085;BME280;2057;50.858;6.572;2023-02-01T15:46:41;100736.00;;;6.89;94.55
4085;BME280;2057;50.858;6.572;2023-02-01T15:49:31;100719.56;;;6.82;96.45
4085;BME280;2057;50.858;6.572;2023-02-01T15:51:59;100722.44;;;6.75;96.78
4085;BME280;2057;50.858;6.572;2023-02-01T15:54:31;100739.28;;;6.63;98.70
4085;BME280;2057;50.858;6.572;2023-02-01T15:57:01;100748.38;;;6.61;99.18
4085;BME280;2057;50.858;6.572;2023-02-01T15:59:45;100748.75;;;6.53;100.00
4085;BME280;2057;50.858;6.572;2023-02-01T16:02:26;100751.38;;;6.43;100.00
4085;BME280;2057;50.858;6.572;2023-02-01T16:04:52;100750.41;;;6.41;100.00
4085;BME280;2057;50.858;6.572;2023-02-01T16:07:27;100744.38;;;6.39;100.00
4085;BME280;2057;50.858;6.572;2023-02-01T16:09:58;100746.69;;;6.36;100.00
4085;BME280;2057;50.858;6.572;2023-02-01T16:12:53;100760.81;;;6.34;100.00
4085;BME280;2057;50.858;6.572;2023-02-01T16:15:22;100767.31;;;6.30;100.00
4085;BME280;2057;50.858;6.572;2023-02-01T16:17:48;100775.53;;;6.27;100.00
4085;BME280;2057;50.858;6.572;2023-02-01T16:20:13;100766.88;;;6.24;100.00
4085;BME280;2057;50.858;6.572;2023-02-01T16:22:39;100770.50;;;6.27;100.00
4085;BME280;2057;50.858;6.572;2023-02-01T16:25:04;100767.41;;;6.20;100.00